sensor_id;sensor_type;location;lat;lon;timestamp;P1;durP1;ratioP1;P2;durP2;ratioP2
14282;SDS011;7225;59.282;18.344;2023-05-19T00:01:17;1.90;;;1.10;;
14282;SDS011;7225;59.282;18.344;2023-05-19T00:03:49;7.43;;;1.00;;
14282;SDS011;7225;59.282;18.344;2023-05-19T00:06:25;2.37;;;0.80;;
14282;SDS011;7225;59.282;18.344;2023-05-19T00:11:28;4.83;;;1.60;;
14282;SDS011;7225;59.282;18.344;2023-05-19T00:13:57;3.97;;;1.53;;
14282;SDS011;7225;59.282;18.344;2023-05-19T00:16:25;3.93;;;1.63;;
14282;SDS011;7225;59.282;18.344;2023-05-19T00:18:56;3.03;;;1.20;;
14282;SDS011;7225;59.282;18.344;2023-05-19T00:21:25;4.87;;;1.37;;
14282;SDS011;7225;59.282;18.344;2023-05-19T00:23:53;3.20;;;1.37;;
14282;SDS011;7225;59.282;18.344;2023-05-19T00:26:20;3.67;;;0.97;;
14282;SDS011;7225;59.282;18.344;2023-05-19T00:28:48;5.33;;;1.43;;
14282;SDS011;7225;59.282;18.344;2023-05-19T00:31:15;3.17;;;0.87;;
14282;SDS011;7225;59.282;18.344;2023-05-19T00:33:43;3.33;;;1.10;;
14282;SDS011;7225;59.282;18.344;2023-05-19T00:36:10;1.60;;;0.93;;
14282;SDS011;7225;59.282;18.344;2023-05-19T00:38:37;5.87;;;1.83;;
14282;SDS011;7225;59.282;18.344;2023-05-19T00:41:04;4.87;;;1.30;;
14282;SDS011;7225;59.282;18.344;2023-05-19T00:43:32;2.63;;;1.60;;
14282;SDS011;7225;59.282;18.344;2023-05-19T00:46:02;5.70;;;2.00;;
14282;SDS011;7225;59.282;18.344;2023-05-19T00:48:29;5.80;;;1.73;;
14282;SDS011;7225;59.282;18.344;2023-05-19T00:50:56;7.57;;;2.40;;
14282;SDS011;7225;59.282;18.344;2023-05-19T00:53:30;8.30;;;2.40;;
14282;SDS011;7225;59.282;18.344;2023-05-19T00:55:59;2.30;;;1.60;;
14282;SDS011;7225;59.282;18.344;2023-05-19T00:58:27;4.13;;;1.47;;
14282;SDS011;7225;59.282;18.344;2023-05-19T01:00:56;5.90;;;1.53;;
14282;SDS011;7225;59.282;18.344;2023-05-19T01:03:33;5.77;;;1.50;;
14282;SDS011;7225;59.282;18.344;2023-05-19T01:06:03;4.97;;;1.60;;
14282;SDS011;7225;59.282;18.344;2023-05-19T01:08:31;4.67;;;1.70;;
14282;SDS011;7225;59.282;18.344;2023-05-19T01:10:59;6.53;;;1.80;;
14282;SDS011;7225;59.282;18.344;2023-05-19T01:13:27;4.93;;;1.53;;
14282;SDS011;7225;59.282;18.344;2023-05-19T01:16:05;4.03;;;1.47;;
14282;SDS011;7225;59.282;18.344;2023-05-19T01:18:52;5.73;;;2.10;;
14282;SDS011;7225;59.282;18.344;2023-05-19T01:33:03;6.67;;;2.17;;
14282;SDS011;7225;59.282;18.344;2023-05-19T01:35:34;6.07;;;1.43;;
14282;SDS011;7225;59.282;18.344;2023-05-19T01:38:03;3.47;;;1.60;;
14282;SDS011;7225;59.282;18.344;2023-05-19T01:40:33;6.13;;;1.90;;
14282;SDS011;7225;59.282;18.344;2023-05-19T01:43:01;7.90;;;1.60;;
14282;SDS011;7225;59.282;18.344;2023-05-19T01:45:30;7.00;;;1.60;;
14282;SDS011;7225;59.282;18.344;2023-05-19T01:48:00;5.90;;;1.67;;
14282;SDS011;7225;59.282;18.344;2023-05-19T01:50:29;7.03;;;1.30;;
14282;SDS011;7225;59.282;18.344;2023-05-19T01:52:57;3.80;;;1.60;;
14282;SDS011;7225;59.282;18.344;2023-05-19T01:55:24;8.97;;;2.30;;
14282;SDS011;7225;59.282;18.344;2023-05-19T02:00:52;6.17;;;1.77;;
14282;SDS011;7225;59.282;18.344;2023-05-19T02:03:52;4.43;;;1.53;;
14282;SDS011;7225;59.282;18.344;2023-05-19T02:09:17;5.37;;;1.37;;
14282;SDS011;7225;59.282;18.344;2023-05-19T02:11:51;7.07;;;1.60;;
14282;SDS011;7225;59.282;18.344;2023-05-19T02:14:24;4.00;;;2.10;;
14282;SDS011;7225;59.282;18.344;2023-05-19T02:17:12;5.70;;;1.50;;
14282;SDS011;7225;59.282;18.344;2023-05-19T02:19:41;3.73;;;1.63;;
14282;SDS011;7225;59.282;18.344;2023-05-19T02:22:09;8.63;;;1.77;;
14282;SDS011;7225;59.282;18.344;2023-05-19T02:24:36;9.03;;;1.30;;
14282;SDS011;7225;59.282;18.344;2023-05-19T02:27:04;4.70;;;1.30;;
14282;SDS011;7225;59.282;18.344;2023-05-19T02:29:31;5.87;;;1.77;;
14282;SDS011;7225;59.282;18.344;2023-05-19T02:31:59;5.93;;;1.80;;
14282;SDS011;7225;59.282;18.344;2023-05-19T02:34:26;6.87;;;1.83;;
14282;SDS011;7225;59.282;18.344;2023-05-19T02:36:53;5.73;;;1.50;;
14282;SDS011;7225;59.282;18.344;2023-05-19T02:39:21;9.37;;;1.80;;
14282;SDS011;7225;59.282;18.344;2023-05-19T02:41:48;3.33;;;1.53;;
14282;SDS011;7225;59.282;18.344;2023-05-19T02:44:15;4.90;;;1.30;;
14282;SDS011;7225;59.282;18.344;2023-05-19T02:46:42;3.57;;;1.20;;
14282;SDS011;7225;59.282;18.344;2023-05-19T02:49:09;4.70;;;1.60;;
14282;SDS011;7225;59.282;18.344;2023-05-19T02:51:36;6.60;;;1.60;;
14282;SDS011;7225;59.282;18.344;2023-05-19T02:54:03;3.63;;;1.50;;
14282;SDS011;7225;59.282;18.344;2023-05-19T02:56:31;4.37;;;1.27;;
14282;SDS011;7225;59.282;18.344;2023-05-19T02:58:58;5.83;;;1.63;;
14282;SDS011;7225;59.282;18.344;2023-05-19T03:01:25;10.20;;;1.73;;
14282;SDS011;7225;59.282;18.344;2023-05-19T03:03:52;5.03;;;1.80;;
14282;SDS011;7225;59.282;18.344;2023-05-19T03:06:19;7.50;;;1.67;;
14282;SDS011;7225;59.282;18.344;2023-05-19T03:08:48;8.60;;;2.50;;
14282;SDS011;7225;59.282;18.344;2023-05-19T03:11:16;5.83;;;1.43;;
14282;SDS011;7225;59.282;18.344;2023-05-19T03:13:43;7.33;;;1.70;;
14282;SDS011;7225;59.282;18.344;2023-05-19T03:16:10;4.37;;;1.47;;
14282;SDS011;7225;59.282;18.344;2023-05-19T03:18:37;7.67;;;1.97;;
14282;SDS011;7225;59.282;18.344;2023-05-19T03:21:04;2.37;;;1.20;;
14282;SDS011;7225;59.282;18.344;2023-05-19T03:23:31;3.87;;;1.40;;
14282;SDS011;7225;59.282;18.344;2023-05-19T03:25:58;4.77;;;1.70;;
14282;SDS011;7225;59.282;18.344;2023-05-19T03:28:25;4.40;;;1.60;;
14282;SDS011;7225;59.282;18.344;2023-05-19T03:30:52;5.73;;;1.57;;
14282;SDS011;7225;59.282;18.344;2023-05-19T03:33:19;4.27;;;1.37;;
14282;SDS011;7225;59.282;18.344;2023-05-19T03:35:47;4.60;;;1.40;;
14282;SDS011;7225;59.282;18.344;2023-05-19T03:38:14;3.53;;;1.30;;
14282;SDS011;7225;59.282;18.344;2023-05-19T03:40:41;5.13;;;1.80;;
14282;SDS011;7225;59.282;18.344;2023-05-19T03:43:08;4.53;;;1.53;;
14282;SDS011;7225;59.282;18.344;2023-05-19T03:45:35;3.37;;;1.50;;
14282;SDS011;7225;59.282;18.344;2023-05-19T03:48:02;9.33;;;1.90;;
14282;SDS011;7225;59.282;18.344;2023-05-19T03:50:29;6.63;;;1.30;;
14282;SDS011;7225;59.282;18.344;2023-05-19T03:52:57;4.47;;;1.23;;
14282;SDS011;7225;59.282;18.344;2023-05-19T03:55:24;4.17;;;1.40;;
14282;SDS011;7225;59.282;18.344;2023-05-19T03:57:51;5.70;;;1.70;;
14282;SDS011;7225;59.282;18.344;2023-05-19T04:00:18;6.07;;;1.80;;
14282;SDS011;7225;59.282;18.344;2023-05-19T04:02:45;5.23;;;1.70;;
14282;SDS011;7225;59.282;18.344;2023-05-19T04:05:13;10.47;;;1.73;;
14282;SDS011;7225;59.282;18.344;2023-05-19T04:07:40;3.43;;;1.47;;
14282;SDS011;7225;59.282;18.344;2023-05-19T04:10:08;5.37;;;1.57;;
14282;SDS011;7225;59.282;18.344;2023-05-19T04:12:36;4.30;;;1.53;;
14282;SDS011;7225;59.282;18.344;2023-05-19T04:15:03;5.17;;;1.30;;
14282;SDS011;7225;59.282;18.344;2023-05-19T04:17:33;8.50;;;1.63;;
14282;SDS011;7225;59.282;18.344;2023-05-19T04:20:00;5.27;;;1.27;;
14282;SDS011;7225;59.282;18.344;2023-05-19T04:22:27;5.23;;;1.50;;
14282;SDS011;7225;59.282;18.344;2023-05-19T04:24:54;7.73;;;1.47;;
14282;SDS011;7225;59.282;18.344;2023-05-19T04:27:21;6.23;;;1.60;;
14282;SDS011;7225;59.282;18.344;2023-05-19T04:29:48;4.60;;;1.33;;
14282;SDS011;7225;59.282;18.344;2023-05-19T04:32:15;2.73;;;1.13;;
14282;SDS011;7225;59.282;18.344;2023-05-19T04:34:43;5.17;;;1.23;;
14282;SDS011;7225;59.282;18.344;2023-05-19T04:37:12;8.03;;;2.13;;
14282;SDS011;7225;59.282;18.344;2023-05-19T04:39:41;7.43;;;1.77;;
14282;SDS011;7225;59.282;18.344;2023-05-19T04:42:10;5.53;;;1.70;;
14282;SDS011;7225;59.282;18.344;2023-05-19T04:44:38;2.90;;;1.17;;
14282;SDS011;7225;59.282;18.344;2023-05-19T04:47:06;6.60;;;1.80;;
14282;SDS011;7225;59.282;18.344;2023-05-19T04:49:34;8.00;;;1.87;;
14282;SDS011;7225;59.282;18.344;2023-05-19T04:52:08;2.77;;;1.33;;
14282;SDS011;7225;59.282;18.344;2023-05-19T04:54:39;5.00;;;2.13;;
14282;SDS011;7225;59.282;18.344;2023-05-19T04:57:07;3.17;;;1.63;;
14282;SDS011;7225;59.282;18.344;2023-05-19T04:59:35;6.27;;;1.47;;
14282;SDS011;7225;59.282;18.344;2023-05-19T05:02:02;4.63;;;1.23;;
14282;SDS011;7225;59.282;18.344;2023-05-19T05:04:29;6.90;;;1.50;;
14282;SDS011;7225;59.282;18.344;2023-05-19T05:06:56;6.03;;;1.33;;
14282;SDS011;7225;59.282;18.344;2023-05-19T05:09:23;7.37;;;1.60;;
14282;SDS011;7225;59.282;18.344;2023-05-19T05:11:51;3.63;;;1.60;;
14282;SDS011;7225;59.282;18.344;2023-05-19T05:14:18;4.80;;;1.37;;
14282;SDS011;7225;59.282;18.344;2023-05-19T05:16:45;4.80;;;1.30;;
14282;SDS011;7225;59.282;18.344;2023-05-19T05:19:13;5.53;;;1.30;;
14282;SDS011;7225;59.282;18.344;2023-05-19T05:21:40;4.37;;;1.40;;
14282;SDS011;7225;59.282;18.344;2023-05-19T05:24:08;4.60;;;1.70;;
14282;SDS011;7225;59.282;18.344;2023-05-19T05:26:36;5.93;;;1.70;;
14282;SDS011;7225;59.282;18.344;2023-05-19T05:29:04;5.23;;;1.40;;
14282;SDS011;7225;59.282;18.344;2023-05-19T05:31:31;6.00;;;1.20;;
14282;SDS011;7225;59.282;18.344;2023-05-19T05:33:58;6.77;;;1.40;;
14282;SDS011;7225;59.282;18.344;2023-05-19T05:36:26;5.43;;;1.57;;
14282;SDS011;7225;59.282;18.344;2023-05-19T05:38:52;6.63;;;1.63;;
14282;SDS011;7225;59.282;18.344;2023-05-19T05:41:20;4.37;;;1.40;;
14282;SDS011;7225;59.282;18.344;2023-05-19T05:43:47;6.73;;;1.23;;
14282;SDS011;7225;59.282;18.344;2023-05-19T05:46:14;6.40;;;1.97;;
14282;SDS011;7225;59.282;18.344;2023-05-19T05:48:42;5.73;;;1.70;;
14282;SDS011;7225;59.282;18.344;2023-05-19T05:51:09;5.33;;;1.50;;
14282;SDS011;7225;59.282;18.344;2023-05-19T05:53:39;4.57;;;1.20;;
14282;SDS011;7225;59.282;18.344;2023-05-19T05:56:09;3.40;;;1.40;;
14282;SDS011;7225;59.282;18.344;2023-05-19T05:58:36;5.20;;;1.77;;
14282;SDS011;7225;59.282;18.344;2023-05-19T06:01:06;4.07;;;1.50;;
14282;SDS011;7225;59.282;18.344;2023-05-19T06:03:37;6.80;;;1.67;;
14282;SDS011;7225;59.282;18.344;2023-05-19T06:06:06;6.30;;;1.67;;
14282;SDS011;7225;59.282;18.344;2023-05-19T06:08:33;3.63;;;1.30;;
14282;SDS011;7225;59.282;18.344;2023-05-19T06:11:00;5.00;;;1.43;;
14282;SDS011;7225;59.282;18.344;2023-05-19T06:13:36;4.00;;;1.20;;
14282;SDS011;7225;59.282;18.344;2023-05-19T06:16:04;6.17;;;1.43;;
14282;SDS011;7225;59.282;18.344;2023-05-19T06:18:32;4.00;;;1.77;;
14282;SDS011;7225;59.282;18.344;2023-05-19T06:20:59;4.10;;;1.10;;
14282;SDS011;7225;59.282;18.344;2023-05-19T06:23:26;3.27;;;1.30;;
14282;SDS011;7225;59.282;18.344;2023-05-19T06:25:55;4.10;;;1.50;;
14282;SDS011;7225;59.282;18.344;2023-05-19T06:28:23;2.53;;;1.30;;
14282;SDS011;7225;59.282;18.344;2023-05-19T06:30:50;3.60;;;1.30;;
14282;SDS011;7225;59.282;18.344;2023-05-19T06:33:17;6.57;;;1.30;;
14282;SDS011;7225;59.282;18.344;2023-05-19T06:35:44;2.90;;;1.30;;
14282;SDS011;7225;59.282;18.344;2023-05-19T06:38:11;4.50;;;1.40;;
14282;SDS011;7225;59.282;18.344;2023-05-19T06:40:38;3.17;;;1.30;;
14282;SDS011;7225;59.282;18.344;2023-05-19T06:43:05;6.10;;;1.67;;
14282;SDS011;7225;59.282;18.344;2023-05-19T06:45:32;3.47;;;1.00;;
14282;SDS011;7225;59.282;18.344;2023-05-19T06:47:59;4.63;;;1.23;;
14282;SDS011;7225;59.282;18.344;2023-05-19T06:50:26;3.90;;;1.30;;
14282;SDS011;7225;59.282;18.344;2023-05-19T06:52:54;3.77;;;1.30;;
14282;SDS011;7225;59.282;18.344;2023-05-19T06:55:22;4.87;;;1.30;;
14282;SDS011;7225;59.282;18.344;2023-05-19T06:57:49;6.77;;;1.83;;
14282;SDS011;7225;59.282;18.344;2023-05-19T07:00:16;5.93;;;1.73;;
14282;SDS011;7225;59.282;18.344;2023-05-19T07:02:47;6.10;;;1.40;;
14282;SDS011;7225;59.282;18.344;2023-05-19T07:05:14;2.53;;;1.30;;
14282;SDS011;7225;59.282;18.344;2023-05-19T07:07:41;2.83;;;1.20;;
14282;SDS011;7225;59.282;18.344;2023-05-19T07:10:09;4.00;;;1.30;;
14282;SDS011;7225;59.282;18.344;2023-05-19T07:12:36;3.27;;;1.00;;
14282;SDS011;7225;59.282;18.344;2023-05-19T07:15:03;5.43;;;1.33;;
14282;SDS011;7225;59.282;18.344;2023-05-19T07:17:31;7.60;;;1.63;;
14282;SDS011;7225;59.282;18.344;2023-05-19T07:19:59;3.60;;;1.27;;
14282;SDS011;7225;59.282;18.344;2023-05-19T07:22:26;4.60;;;1.27;;
14282;SDS011;7225;59.282;18.344;2023-05-19T07:24:54;2.40;;;1.10;;
14282;SDS011;7225;59.282;18.344;2023-05-19T07:27:22;2.63;;;1.00;;
14282;SDS011;7225;59.282;18.344;2023-05-19T07:29:49;2.07;;;0.90;;
14282;SDS011;7225;59.282;18.344;2023-05-19T07:32:16;4.70;;;1.30;;
14282;SDS011;7225;59.282;18.344;2023-05-19T07:34:43;3.13;;;1.13;;
14282;SDS011;7225;59.282;18.344;2023-05-19T07:37:10;2.30;;;1.10;;
14282;SDS011;7225;59.282;18.344;2023-05-19T07:39:38;4.90;;;1.37;;
14282;SDS011;7225;59.282;18.344;2023-05-19T07:42:05;2.73;;;1.10;;
14282;SDS011;7225;59.282;18.344;2023-05-19T07:44:32;3.50;;;1.33;;
14282;SDS011;7225;59.282;18.344;2023-05-19T07:47:00;4.67;;;1.33;;
14282;SDS011;7225;59.282;18.344;2023-05-19T07:49:27;3.43;;;1.00;;
14282;SDS011;7225;59.282;18.344;2023-05-19T07:51:54;4.87;;;1.10;;
14282;SDS011;7225;59.282;18.344;2023-05-19T07:54:22;3.60;;;0.93;;
14282;SDS011;7225;59.282;18.344;2023-05-19T07:56:49;7.13;;;1.33;;
14282;SDS011;7225;59.282;18.344;2023-05-19T07:59:16;6.43;;;1.30;;
14282;SDS011;7225;59.282;18.344;2023-05-19T08:01:43;4.77;;;1.33;;
14282;SDS011;7225;59.282;18.344;2023-05-19T08:04:10;4.70;;;1.60;;
14282;SDS011;7225;59.282;18.344;2023-05-19T08:06:38;3.83;;;1.43;;
14282;SDS011;7225;59.282;18.344;2023-05-19T08:09:09;4.20;;;1.20;;
14282;SDS011;7225;59.282;18.344;2023-05-19T08:11:37;5.33;;;1.30;;
14282;SDS011;7225;59.282;18.344;2023-05-19T08:14:04;3.97;;;1.10;;
14282;SDS011;7225;59.282;18.344;2023-05-19T08:16:31;3.53;;;1.13;;
14282;SDS011;7225;59.282;18.344;2023-05-19T08:18:58;4.63;;;1.20;;
14282;SDS011;7225;59.282;18.344;2023-05-19T08:21:28;3.00;;;1.20;;
14282;SDS011;7225;59.282;18.344;2023-05-19T08:23:55;2.40;;;1.00;;
14282;SDS011;7225;59.282;18.344;2023-05-19T08:26:22;3.63;;;1.20;;
14282;SDS011;7225;59.282;18.344;2023-05-19T08:28:49;3.50;;;1.07;;
14282;SDS011;7225;59.282;18.344;2023-05-19T08:31:16;2.33;;;1.10;;
14282;SDS011;7225;59.282;18.344;2023-05-19T08:33:44;2.40;;;0.90;;
14282;SDS011;7225;59.282;18.344;2023-05-19T08:36:11;2.37;;;1.10;;
14282;SDS011;7225;59.282;18.344;2023-05-19T08:38:38;4.80;;;1.47;;
14282;SDS011;7225;59.282;18.344;2023-05-19T08:41:05;3.17;;;1.03;;
14282;SDS011;7225;59.282;18.344;2023-05-19T08:43:32;2.80;;;1.00;;
14282;SDS011;7225;59.282;18.344;2023-05-19T08:45:59;2.07;;;1.10;;
14282;SDS011;7225;59.282;18.344;2023-05-19T08:48:27;1.83;;;0.80;;
14282;SDS011;7225;59.282;18.344;2023-05-19T08:51:40;2.70;;;0.97;;
14282;SDS011;7225;59.282;18.344;2023-05-19T08:53:54;3.73;;;0.87;;
14282;SDS011;7225;59.282;18.344;2023-05-19T08:56:25;2.20;;;1.10;;
14282;SDS011;7225;59.282;18.344;2023-05-19T08:58:53;3.10;;;0.80;;
14282;SDS011;7225;59.282;18.344;2023-05-19T09:01:21;4.00;;;1.00;;
14282;SDS011;7225;59.282;18.344;2023-05-19T09:03:49;2.47;;;1.00;;
14282;SDS011;7225;59.282;18.344;2023-05-19T09:06:17;2.97;;;0.93;;
14282;SDS011;7225;59.282;18.344;2023-05-19T09:08:44;2.60;;;0.70;;
14282;SDS011;7225;59.282;18.344;2023-05-19T09:11:12;4.27;;;1.13;;
14282;SDS011;7225;59.282;18.344;2023-05-19T09:13:39;4.13;;;1.17;;
14282;SDS011;7225;59.282;18.344;2023-05-19T09:16:06;1.63;;;0.80;;
14282;SDS011;7225;59.282;18.344;2023-05-19T09:18:36;2.60;;;0.93;;
14282;SDS011;7225;59.282;18.344;2023-05-19T09:21:05;5.37;;;1.03;;
14282;SDS011;7225;59.282;18.344;2023-05-19T09:23:33;2.10;;;0.80;;
14282;SDS011;7225;59.282;18.344;2023-05-19T09:26:01;2.53;;;1.00;;
14282;SDS011;7225;59.282;18.344;2023-05-19T09:28:30;2.73;;;1.27;;
14282;SDS011;7225;59.282;18.344;2023-05-19T09:30:59;2.40;;;0.80;;
14282;SDS011;7225;59.282;18.344;2023-05-19T09:33:35;2.13;;;0.80;;
14282;SDS011;7225;59.282;18.344;2023-05-19T09:36:03;1.43;;;0.53;;
14282;SDS011;7225;59.282;18.344;2023-05-19T09:38:31;1.98;;;0.70;;
14282;SDS011;7225;59.282;18.344;2023-05-19T09:41:00;2.23;;;0.80;;
14282;SDS011;7225;59.282;18.344;2023-05-19T09:43:31;1.80;;;0.90;;
14282;SDS011;7225;59.282;18.344;2023-05-19T09:46:02;1.95;;;0.93;;
14282;SDS011;7225;59.282;18.344;2023-05-19T09:48:31;1.67;;;0.80;;
14282;SDS011;7225;59.282;18.344;2023-05-19T09:51:00;1.70;;;0.97;;
14282;SDS011;7225;59.282;18.344;2023-05-19T09:53:30;2.50;;;0.68;;
14282;SDS011;7225;59.282;18.344;2023-05-19T09:55:59;1.30;;;0.50;;
14282;SDS011;7225;59.282;18.344;2023-05-19T09:58:30;2.17;;;0.80;;
14282;SDS011;7225;59.282;18.344;2023-05-19T10:01:02;1.97;;;0.70;;
14282;SDS011;7225;59.282;18.344;2023-05-19T10:03:31;3.00;;;0.70;;
14282;SDS011;7225;59.282;18.344;2023-05-19T10:06:05;1.88;;;1.05;;
14282;SDS011;7225;59.282;18.344;2023-05-19T10:08:34;1.17;;;0.55;;
14282;SDS011;7225;59.282;18.344;2023-05-19T10:11:02;1.23;;;0.47;;
14282;SDS011;7225;59.282;18.344;2023-05-19T10:13:30;1.27;;;0.70;;
14282;SDS011;7225;59.282;18.344;2023-05-19T10:16:01;0.82;;;0.50;;
14282;SDS011;7225;59.282;18.344;2023-05-19T10:18:29;0.75;;;0.40;;
14282;SDS011;7225;59.282;18.344;2023-05-19T10:20:58;1.83;;;0.55;;
14282;SDS011;7225;59.282;18.344;2023-05-19T10:23:27;2.65;;;0.88;;
14282;SDS011;7225;59.282;18.344;2023-05-19T10:25:55;0.85;;;0.45;;
14282;SDS011;7225;59.282;18.344;2023-05-19T10:28:24;0.82;;;0.47;;
14282;SDS011;7225;59.282;18.344;2023-05-19T10:30:58;1.98;;;0.50;;
14282;SDS011;7225;59.282;18.344;2023-05-19T10:37:11;1.17;;;0.60;;
14282;SDS011;7225;59.282;18.344;2023-05-19T10:39:37;3.90;;;0.82;;
14282;SDS011;7225;59.282;18.344;2023-05-19T10:45:13;0.90;;;0.50;;
14282;SDS011;7225;59.282;18.344;2023-05-19T10:47:45;3.22;;;0.85;;
14282;SDS011;7225;59.282;18.344;2023-05-19T10:50:12;1.63;;;0.45;;
14282;SDS011;7225;59.282;18.344;2023-05-19T10:52:39;0.35;;;0.35;;
14282;SDS011;7225;59.282;18.344;2023-05-19T10:58:38;2.53;;;0.90;;
14282;SDS011;7225;59.282;18.344;2023-05-19T11:01:12;1.48;;;0.60;;
14282;SDS011;7225;59.282;18.344;2023-05-19T11:03:43;2.05;;;0.55;;
14282;SDS011;7225;59.282;18.344;2023-05-19T11:06:19;1.30;;;0.63;;
14282;SDS011;7225;59.282;18.344;2023-05-19T11:08:51;1.07;;;0.50;;
14282;SDS011;7225;59.282;18.344;2023-05-19T11:11:19;1.70;;;0.68;;
14282;SDS011;7225;59.282;18.344;2023-05-19T11:13:52;1.58;;;0.57;;
14282;SDS011;7225;59.282;18.344;2023-05-19T11:16:33;2.35;;;0.70;;
14282;SDS011;7225;59.282;18.344;2023-05-19T11:19:00;2.95;;;0.70;;
14282;SDS011;7225;59.282;18.344;2023-05-19T11:21:49;0.73;;;0.40;;
14282;SDS011;7225;59.282;18.344;2023-05-19T11:24:33;1.33;;;0.50;;
14282;SDS011;7225;59.282;18.344;2023-05-19T11:27:20;3.03;;;0.93;;
14282;SDS011;7225;59.282;18.344;2023-05-19T11:32:31;2.08;;;0.90;;
14282;SDS011;7225;59.282;18.344;2023-05-19T11:34:59;1.58;;;0.82;;
14282;SDS011;7225;59.282;18.344;2023-05-19T11:37:29;0.93;;;0.50;;
14282;SDS011;7225;59.282;18.344;2023-05-19T11:40:00;1.20;;;0.60;;
14282;SDS011;7225;59.282;18.344;2023-05-19T11:42:28;1.05;;;0.70;;
14282;SDS011;7225;59.282;18.344;2023-05-19T11:44:55;3.95;;;0.88;;
14282;SDS011;7225;59.282;18.344;2023-05-19T11:47:22;1.80;;;0.50;;
14282;SDS011;7225;59.282;18.344;2023-05-19T11:49:49;1.02;;;0.60;;
14282;SDS011;7225;59.282;18.344;2023-05-19T11:52:23;0.82;;;0.50;;
14282;SDS011;7225;59.282;18.344;2023-05-19T11:54:52;1.55;;;0.65;;
14282;SDS011;7225;59.282;18.344;2023-05-19T11:57:19;3.05;;;0.68;;
14282;SDS011;7225;59.282;18.344;2023-05-19T11:59:46;1.75;;;0.60;;
14282;SDS011;7225;59.282;18.344;2023-05-19T12:02:16;2.20;;;0.60;;
14282;SDS011;7225;59.282;18.344;2023-05-19T12:04:45;1.73;;;0.60;;
14282;SDS011;7225;59.282;18.344;2023-05-19T12:07:17;1.45;;;0.70;;
14282;SDS011;7225;59.282;18.344;2023-05-19T12:09:45;1.75;;;0.60;;
14282;SDS011;7225;59.282;18.344;2023-05-19T12:12:16;0.93;;;0.65;;
14282;SDS011;7225;59.282;18.344;2023-05-19T12:14:50;1.92;;;0.50;;
14282;SDS011;7225;59.282;18.344;2023-05-19T12:17:19;2.83;;;0.60;;
14282;SDS011;7225;59.282;18.344;2023-05-19T12:19:47;1.13;;;0.65;;
14282;SDS011;7225;59.282;18.344;2023-05-19T12:22:15;1.05;;;0.52;;
14282;SDS011;7225;59.282;18.344;2023-05-19T12:24:43;1.67;;;0.65;;
14282;SDS011;7225;59.282;18.344;2023-05-19T12:27:15;1.00;;;0.43;;
14282;SDS011;7225;59.282;18.344;2023-05-19T12:29:49;2.92;;;0.70;;
14282;SDS011;7225;59.282;18.344;2023-05-19T12:32:23;1.55;;;0.45;;
14282;SDS011;7225;59.282;18.344;2023-05-19T12:34:52;0.98;;;0.40;;
14282;SDS011;7225;59.282;18.344;2023-05-19T12:37:26;0.95;;;0.40;;
14282;SDS011;7225;59.282;18.344;2023-05-19T12:39:55;2.47;;;0.52;;
14282;SDS011;7225;59.282;18.344;2023-05-19T12:42:24;1.38;;;0.60;;
14282;SDS011;7225;59.282;18.344;2023-05-19T12:44:57;0.95;;;0.50;;
14282;SDS011;7225;59.282;18.344;2023-05-19T12:47:29;1.85;;;0.60;;
14282;SDS011;7225;59.282;18.344;2023-05-19T12:52:26;2.03;;;0.65;;
14282;SDS011;7225;59.282;18.344;2023-05-19T12:54:58;1.88;;;0.70;;
14282;SDS011;7225;59.282;18.344;2023-05-19T12:57:26;1.65;;;0.40;;
14282;SDS011;7225;59.282;18.344;2023-05-19T13:00:01;1.53;;;0.57;;
14282;SDS011;7225;59.282;18.344;2023-05-19T13:02:53;1.27;;;0.63;;
14282;SDS011;7225;59.282;18.344;2023-05-19T13:05:21;1.10;;;0.50;;
14282;SDS011;7225;59.282;18.344;2023-05-19T13:07:58;1.47;;;0.43;;
14282;SDS011;7225;59.282;18.344;2023-05-19T13:10:27;3.10;;;0.60;;
14282;SDS011;7225;59.282;18.344;2023-05-19T13:12:55;0.60;;;0.40;;
14282;SDS011;7225;59.282;18.344;2023-05-19T13:15:24;1.53;;;0.67;;
14282;SDS011;7225;59.282;18.344;2023-05-19T13:17:53;1.63;;;0.40;;
14282;SDS011;7225;59.282;18.344;2023-05-19T13:20:20;1.25;;;0.60;;
14282;SDS011;7225;59.282;18.344;2023-05-19T13:22:47;2.40;;;0.80;;
14282;SDS011;7225;59.282;18.344;2023-05-19T13:25:15;2.03;;;0.67;;
14282;SDS011;7225;59.282;18.344;2023-05-19T13:27:45;1.37;;;0.50;;
14282;SDS011;7225;59.282;18.344;2023-05-19T13:30:13;1.37;;;0.63;;
14282;SDS011;7225;59.282;18.344;2023-05-19T13:32:41;1.10;;;0.60;;
14282;SDS011;7225;59.282;18.344;2023-05-19T13:35:08;1.13;;;0.50;;
14282;SDS011;7225;59.282;18.344;2023-05-19T13:37:36;1.50;;;0.60;;
14282;SDS011;7225;59.282;18.344;2023-05-19T13:40:05;1.20;;;0.43;;
14282;SDS011;7225;59.282;18.344;2023-05-19T13:42:32;1.67;;;0.77;;
14282;SDS011;7225;59.282;18.344;2023-05-19T13:45:00;0.97;;;0.50;;
14282;SDS011;7225;59.282;18.344;2023-05-19T13:47:28;5.60;;;0.85;;
14282;SDS011;7225;59.282;18.344;2023-05-19T13:49:55;1.67;;;0.63;;
14282;SDS011;7225;59.282;18.344;2023-05-19T13:52:23;1.43;;;0.60;;
14282;SDS011;7225;59.282;18.344;2023-05-19T13:54:52;1.43;;;0.50;;
14282;SDS011;7225;59.282;18.344;2023-05-19T13:57:22;1.03;;;0.50;;
14282;SDS011;7225;59.282;18.344;2023-05-19T13:59:49;1.13;;;0.50;;
14282;SDS011;7225;59.282;18.344;2023-05-19T14:02:27;1.03;;;0.50;;
14282;SDS011;7225;59.282;18.344;2023-05-19T14:04:55;1.27;;;0.77;;
14282;SDS011;7225;59.282;18.344;2023-05-19T14:07:22;2.00;;;0.60;;
14282;SDS011;7225;59.282;18.344;2023-05-19T14:09:51;5.23;;;0.60;;
14282;SDS011;7225;59.282;18.344;2023-05-19T14:12:18;0.67;;;0.40;;
14282;SDS011;7225;59.282;18.344;2023-05-19T14:14:50;1.57;;;0.60;;
14282;SDS011;7225;59.282;18.344;2023-05-19T14:17:17;1.65;;;0.50;;
14282;SDS011;7225;59.282;18.344;2023-05-19T14:19:44;0.73;;;0.50;;
14282;SDS011;7225;59.282;18.344;2023-05-19T14:22:11;2.10;;;0.63;;
14282;SDS011;7225;59.282;18.344;2023-05-19T14:24:38;3.47;;;0.73;;
14282;SDS011;7225;59.282;18.344;2023-05-19T14:27:06;1.43;;;0.60;;
14282;SDS011;7225;59.282;18.344;2023-05-19T14:29:33;1.47;;;0.50;;
14282;SDS011;7225;59.282;18.344;2023-05-19T14:32:00;1.17;;;0.60;;
14282;SDS011;7225;59.282;18.344;2023-05-19T14:34:28;2.63;;;0.63;;
14282;SDS011;7225;59.282;18.344;2023-05-19T14:36:55;2.40;;;0.60;;
14282;SDS011;7225;59.282;18.344;2023-05-19T14:39:23;1.27;;;0.70;;
14282;SDS011;7225;59.282;18.344;2023-05-19T14:41:50;0.73;;;0.50;;
14282;SDS011;7225;59.282;18.344;2023-05-19T14:44:18;3.53;;;0.60;;
14282;SDS011;7225;59.282;18.344;2023-05-19T14:46:45;2.57;;;0.80;;
14282;SDS011;7225;59.282;18.344;2023-05-19T14:49:12;1.13;;;0.70;;
14282;SDS011;7225;59.282;18.344;2023-05-19T14:51:39;1.70;;;0.50;;
14282;SDS011;7225;59.282;18.344;2023-05-19T14:54:06;1.90;;;0.70;;
14282;SDS011;7225;59.282;18.344;2023-05-19T14:56:33;1.07;;;0.63;;
14282;SDS011;7225;59.282;18.344;2023-05-19T14:59:00;1.67;;;0.70;;
14282;SDS011;7225;59.282;18.344;2023-05-19T15:01:27;1.97;;;0.70;;
14282;SDS011;7225;59.282;18.344;2023-05-19T15:03:54;2.30;;;0.63;;
14282;SDS011;7225;59.282;18.344;2023-05-19T15:06:21;1.90;;;0.77;;
14282;SDS011;7225;59.282;18.344;2023-05-19T15:08:48;3.87;;;0.90;;
14282;SDS011;7225;59.282;18.344;2023-05-19T15:11:15;1.10;;;0.60;;
14282;SDS011;7225;59.282;18.344;2023-05-19T15:13:42;0.77;;;0.53;;
14282;SDS011;7225;59.282;18.344;2023-05-19T15:16:10;2.00;;;0.87;;
14282;SDS011;7225;59.282;18.344;2023-05-19T15:18:40;7.50;;;1.17;;
14282;SDS011;7225;59.282;18.344;2023-05-19T15:21:07;1.63;;;0.50;;
14282;SDS011;7225;59.282;18.344;2023-05-19T15:23:34;4.30;;;0.63;;
14282;SDS011;7225;59.282;18.344;2023-05-19T15:26:01;1.93;;;0.70;;
14282;SDS011;7225;59.282;18.344;2023-05-19T15:28:28;4.20;;;1.00;;
14282;SDS011;7225;59.282;18.344;2023-05-19T15:30:55;2.77;;;0.63;;
14282;SDS011;7225;59.282;18.344;2023-05-19T15:33:22;1.67;;;0.50;;